Time;durP1;ratioP1;P1;durP2;ratioP2;P2;SDS_P1;SDS_P2;PMS_P1;PMS_P2;Temp;Humidity;BMP_temperature;BMP_pressure;BME280_temperature;BME280_humidity;BME280_pressure;Samples;Min_cycle;Max_cycle;Signal;HPM_P1;HPM_P2
2022/07/05 00:00:54;;;;;;;1.50;1.40;;;;;;;15.03;64.43;102059.66;5091158;28;20115;-79
2022/07/05 00:03:19;;;;;;;1.23;1.23;;;;;;;14.98;64.66;102054.50;5091731;28;20104;-79
2022/07/05 00:05:44;;;;;;;1.27;1.23;;;;;;;14.93;64.77;102051.06;5078181;28;20024;-79
2022/07/05 00:08:10;;;;;;;1.00;1.00;;;;;;;14.89;64.77;102055.47;5072711;28;20032;-79
2022/07/05 00:10:36;;;;;;;1.03;1.03;;;;;;;14.83;65.11;102048.59;5071558;28;20094;-79
2022/07/05 00:13:02;;;;;;;1.33;1.20;;;;;;;14.78;65.12;102050.41;5072623;28;20032;-79
2022/07/05 00:15:27;;;;;;;1.47;1.23;;;;;;;14.74;65.29;102055.72;5071794;28;20025;-79
2022/07/05 00:17:52;;;;;;;1.17;1.17;;;;;;;14.71;65.22;102045.28;5071827;28;20271;-79
2022/07/05 00:20:18;;;;;;;1.20;1.20;;;;;;;14.63;65.50;102045.34;5072015;28;20511;-79
2022/07/05 00:22:43;;;;;;;1.40;1.13;;;;;;;14.57;65.52;102040.22;5071330;28;20028;-79
2022/07/05 00:25:09;;;;;;;1.33;1.20;;;;;;;14.50;65.54;102036.81;5072671;28;20030;-79
2022/07/05 00:27:34;;;;;;;1.47;1.30;;;;;;;14.47;65.98;102036.84;5076593;28;20021;-80
2022/07/05 00:30:00;;;;;;;1.07;1.07;;;;;;;14.41;66.10;102037.78;5083271;28;20770;-79
2022/07/05 00:32:26;;;;;;;;;;;;;;;14.38;65.98;102039.56;5097649;28;20118;-79
2022/07/05 00:34:52;;;;;;;1.37;1.27;;;;;;;14.31;66.05;102034.41;5096548;28;20318;-79
2022/07/05 00:37:17;;;;;;;1.43;1.10;;;;;;;14.29;66.74;102038.81;5088266;28;20040;-80
2022/07/05 00:39:43;;;;;;;1.03;1.03;;;;;;;14.24;66.29;102031.91;5075752;28;20052;-79
2022/07/05 00:42:08;;;;;;;1.43;1.37;;;;;;;14.19;66.45;102039.78;5076709;28;20143;-80
2022/07/05 00:44:41;;;;;;;2.03;1.20;;;;;;;14.15;66.59;102038.09;5074914;28;20025;-79
2022/07/05 00:47:08;;;;;;;1.35;1.30;;;;;;;14.11;66.91;102039.88;5075855;28;20020;-80
2022/07/05 00:49:34;;;;;;;1.40;1.30;;;;;;;14.06;66.96;102036.44;5075656;28;20384;-79
2022/07/05 00:52:00;;;;;;;;;;;;;;;14.03;67.03;102044.31;5075376;28;20028;-79
2022/07/05 00:54:27;;;;;;;1.30;1.17;;;;;;;14.01;67.13;102046.94;5076505;28;19920;-79
2022/07/05 00:56:53;;;;;;;2.00;1.30;;;;;;;13.99;67.63;102046.09;5075716;28;20032;-79
2022/07/05 00:59:18;;;;;;;1.50;1.40;;;;;;;13.94;67.26;102032.22;5071543;28;20104;-79
2022/07/05 01:01:44;;;;;;;1.53;1.50;;;;;;;13.88;67.44;102035.78;5056043;28;20036;-79
2022/07/05 01:04:16;;;;;;;1.20;1.20;;;;;;;13.85;67.50;102037.53;5055151;28;20024;-80
2022/07/05 01:06:43;;;;;;;1.10;1.10;;;;;;;13.81;67.89;102047.13;5053922;28;20501;-79
2022/07/05 01:09:12;;;;;;;1.50;1.40;;;;;;;13.80;67.65;102052.38;5055052;28;20057;-79
2022/07/05 01:11:38;;;;;;;1.30;1.20;;;;;;;13.77;68.13;102053.28;5054519;28;20017;-79
2022/07/05 01:14:07;;;;;;;1.48;1.38;;;;;;;13.73;68.21;102047.22;5055544;28;20388;-79
2022/07/05 01:16:33;;;;;;;1.42;1.33;;;;;;;13.71;68.40;102046.38;5055021;28;20040;-79
2022/07/05 01:18:58;;;;;;;1.40;1.30;;;;;;;13.71;68.40;102041.16;5053895;28;20025;-79
2022/07/05 01:21:26;;;;;;;1.30;1.30;;;;;;;13.68;68.25;102046.38;5055230;28;20014;-79
2022/07/05 01:23:52;;;;;;;1.52;1.42;;;;;;;13.66;68.27;102045.53;5055132;28;20536;-79
2022/07/05 01:26:17;;;;;;;1.20;1.20;;;;;;;13.61;68.37;102042.13;5054625;28;20104;-80
2022/07/05 01:28:42;;;;;;;1.40;1.30;;;;;;;13.60;68.63;102043.00;5054574;28;20017;-79
2022/07/05 01:31:08;;;;;;;1.33;1.30;;;;;;;13.56;68.96;102043.88;5054400;28;20060;-79
2022/07/05 01:33:33;;;;;;;1.30;1.30;;;;;;;13.53;68.66;102041.28;5054203;28;20453;-80
2022/07/05 01:35:58;;;;;;;1.73;1.37;;;;;;;13.49;68.70;102037.84;5055361;28;20026;-79
2022/07/05 01:38:27;;;;;;;1.60;1.50;;;;;;;13.43;68.77;102051.81;5071341;28;20550;-80
2022/07/05 01:40:52;;;;;;;1.60;1.50;;;;;;;13.39;68.92;102051.81;5074538;28;20035;-79
2022/07/05 01:43:22;;;;;;;1.50;1.40;;;;;;;13.36;69.24;102044.00;5075345;28;20021;-80
2022/07/05 01:45:48;;;;;;;1.60;1.50;;;;;;;13.32;69.41;102042.31;5074513;28;20154;-79
2022/07/05 01:48:15;;;;;;;1.30;1.30;;;;;;;13.29;69.27;102043.19;5074266;28;20062;-80
2022/07/05 01:50:51;;;;;;;3.30;1.60;;;;;;;13.27;69.23;102050.19;5074415;28;20032;-79
2022/07/05 01:53:22;;;;;;;1.60;1.50;;;;;;;13.21;69.25;102050.19;5074450;28;20384;-80
2022/07/05 01:55:48;;;;;;;1.05;1.05;;;;;;;13.18;69.54;102045.88;5055720;28;20294;-80
2022/07/05 01:58:13;;;;;;;1.73;1.50;;;;;;;13.15;69.54;102040.69;5054242;28;20033;-80
2022/07/05 02:00:47;;;;;;;1.80;1.70;;;;;;;13.13;69.90;102038.09;5053607;28;20125;-80
2022/07/05 02:03:13;;;;;;;1.50;1.40;;;;;;;13.11;70.02;102039.84;5066777;28;20073;-80
2022/07/05 02:05:39;;;;;;;1.63;1.52;;;;;;;13.08;69.72;102042.47;5074010;28;20028;-79
2022/07/05 02:08:05;;;;;;;2.50;1.70;;;;;;;13.08;70.25;102039.84;5073674;28;20024;-80
2022/07/05 02:10:30;;;;;;;1.57;1.47;;;;;;;13.05;70.22;102039.00;5075826;28;20032;-80
2022/07/05 02:12:55;;;;;;;1.67;1.57;;;;;;;13.03;70.06;102030.34;5075142;28;20063;-80
2022/07/05 02:15:20;;;;;;;1.53;1.43;;;;;;;12.97;70.27;102036.44;5073456;28;20025;-80
2022/07/05 02:17:46;;;;;;;1.63;1.53;;;;;;;12.91;69.93;102039.09;5073290;28;20090;-79
2022/07/05 02:20:12;;;;;;;1.70;1.60;;;;;;;12.87;70.36;102029.56;5073699;28;20017;-79
2022/07/05 02:22:37;;;;;;;1.67;1.57;;;;;;;12.85;70.58;102028.69;5072846;28;20540;-79
2022/07/05 02:25:02;;;;;;;1.70;1.40;;;;;;;12.82;70.25;102030.47;5061668;28;20381;-79
2022/07/05 02:27:28;;;;;;;1.60;1.50;;;;;;;12.77;70.42;102021.81;5053289;28;20021;-80
2022/07/05 02:29:53;;;;;;;1.87;1.77;;;;;;;12.80;70.37;102033.94;5052547;28;20025;-79
2022/07/05 02:32:18;;;;;;;1.80;1.70;;;;;;;12.77;70.76;102036.59;5053271;28;20033;-80
2022/07/05 02:34:43;;;;;;;2.30;2.10;;;;;;;12.74;70.54;102034.00;5053138;28;20032;-79
2022/07/05 02:37:09;;;;;;;1.80;1.70;;;;;;;12.74;70.60;102040.06;5053322;28;20057;-79
2022/07/05 02:39:34;;;;;;;1.90;1.80;;;;;;;12.71;70.79;102042.69;5053769;28;20025;-80
2022/07/05 02:41:59;;;;;;;1.70;1.60;;;;;;;12.69;70.87;102040.94;5066925;28;20392;-80
2022/07/05 02:44:24;;;;;;;1.70;1.60;;;;;;;12.64;70.98;102044.47;5093244;28;20024;-80
2022/07/05 02:46:50;;;;;;;1.70;1.60;;;;;;;12.62;71.02;102046.19;5093427;28;20059;-80
2022/07/05 02:49:15;;;;;;;1.90;1.80;;;;;;;12.63;70.94;102053.16;5086346;28;20113;-80
2022/07/05 02:51:40;;;;;;;1.60;1.50;;;;;;;12.64;71.55;102054.00;5072341;28;20024;-80
2022/07/05 02:54:06;;;;;;;2.23;1.93;;;;;;;12.64;71.12;102057.47;5075838;28;20028;-80
2022/07/05 02:56:31;;;;;;;1.60;1.50;;;;;;;12.61;71.70;102060.09;5091536;28;20028;-80
2022/07/05 02:58:56;;;;;;;1.83;1.73;;;;;;;12.62;71.21;102058.34;5092585;28;20247;-79
2022/07/05 03:01:21;;;;;;;2.00;1.90;;;;;;;12.61;71.88;102060.09;5093072;28;20103;-80
2022/07/05 03:03:52;;;;;;;1.60;1.50;;;;;;;12.59;71.38;102056.63;5093052;28;20024;-79
2022/07/05 03:06:18;;;;;;;1.73;1.63;;;;;;;12.55;71.48;102054.94;5093115;28;20494;-80
2022/07/05 03:08:43;;;;;;;1.90;1.80;;;;;;;12.52;71.50;102057.53;5092889;28;20020;-80
2022/07/05 03:11:08;;;;;;;2.10;1.90;;;;;;;12.49;71.68;102058.41;5092557;28;20383;-79
2022/07/05 03:13:34;;;;;;;2.00;1.90;;;;;;;12.45;71.58;102054.09;5093283;28;20028;-80
2022/07/05 03:16:02;;;;;;;1.93;1.83;;;;;;;12.48;71.34;102058.41;5079712;28;20044;-80
2022/07/05 03:18:27;;;;;;;2.25;2.10;;;;;;;12.48;71.61;102067.09;5072467;28;20203;-80
2022/07/05 03:20:53;;;;;;;2.00;1.90;;;;;;;12.48;71.69;102072.31;5072749;28;20025;-79
2022/07/05 03:23:18;;;;;;;2.43;2.23;;;;;;;12.46;71.54;102065.34;5072720;28;20025;-80
2022/07/05 03:25:43;;;;;;;2.30;2.10;;;;;;;12.49;71.71;102075.75;5087883;28;20035;-79
2022/07/05 03:28:08;;;;;;;2.30;2.10;;;;;;;12.44;72.07;102075.78;5093123;28;20024;-80
2022/07/05 03:30:34;;;;;;;2.10;2.00;;;;;;;12.43;71.94;102081.00;5093014;28;20403;-80
2022/07/05 03:32:59;;;;;;;2.57;2.13;;;;;;;12.40;71.94;102081.00;5092216;28;20020;-79
2022/07/05 03:35:26;;;;;;;2.47;2.10;;;;;;;12.39;71.64;102074.91;5093010;28;20063;-80
2022/07/05 03:37:51;;;;;;;2.28;2.03;;;;;;;12.29;72.07;102057.59;5092977;28;20028;-80
2022/07/05 03:40:17;;;;;;;2.10;2.00;;;;;;;12.36;72.04;102072.34;5092715;28;20489;-80
2022/07/05 03:42:42;;;;;;;2.20;2.00;;;;;;;12.36;71.93;102075.81;5093339;28;20036;-80
2022/07/05 03:45:10;;;;;;;2.10;2.00;;;;;;;12.34;72.35;102076.69;5093583;28;20046;-80
2022/07/05 03:47:37;;;;;;;2.20;2.00;;;;;;;12.37;72.42;102079.28;5091481;28;20044;-80
2022/07/05 03:50:03;;;;;;;1.97;1.87;;;;;;;12.34;72.13;102077.53;5090069;28;20097;-80
2022/07/05 03:52:29;;;;;;;2.75;2.17;;;;;;;12.36;72.56;102082.75;5093073;28;20023;-80
2022/07/05 03:54:54;;;;;;;2.40;2.20;;;;;;;12.36;72.62;102077.56;5078879;28;20481;-79
2022/07/05 03:57:20;;;;;;;3.00;2.30;;;;;;;12.39;72.37;102082.72;5072550;28;20013;-80
2022/07/05 03:59:45;;;;;;;2.50;2.30;;;;;;;12.42;72.64;102084.47;5071856;28;20488;-80
2022/07/05 04:02:11;;;;;;;2.53;2.30;;;;;;;12.43;72.45;102084.47;5075605;28;20059;-80
2022/07/05 04:04:36;;;;;;;2.30;2.10;;;;;;;12.46;72.92;102091.38;5076418;28;20028;-80
2022/07/05 04:07:01;;;;;;;2.40;2.20;;;;;;;12.47;72.91;102090.53;5075916;28;20384;-80
2022/07/05 04:09:27;;;;;;;2.20;2.00;;;;;;;12.48;72.95;102082.72;5075821;28;20115;-80
2022/07/05 04:11:52;;;;;;;2.30;2.10;;;;;;;12.52;72.98;102089.63;5075680;28;20033;-80
2022/07/05 04:14:17;;;;;;;2.60;2.20;;;;;;;12.56;73.11;102090.47;5076403;28;20039;-80
2022/07/05 04:16:42;;;;;;;1.93;1.80;;;;;;;12.64;73.60;102098.28;5076005;28;20146;-80
2022/07/05 04:19:08;;;;;;;2.00;1.80;;;;;;;12.68;73.52;102097.41;5076453;28;20024;-80
2022/07/05 04:21:33;;;;;;;1.70;1.60;;;;;;;12.72;73.77;102099.09;5075120;28;20016;-80
2022/07/05 04:24:01;;;;;;;1.70;1.60;;;;;;;12.73;73.52;102097.38;5075291;28;20028;-80
2022/07/05 04:26:26;;;;;;;1.80;1.70;;;;;;;12.76;73.89;102100.84;5075663;28;20032;-80
2022/07/05 04:28:54;;;;;;;1.90;1.80;;;;;;;12.79;73.52;102100.81;5074739;28;20028;-80
2022/07/05 04:31:19;;;;;;;1.90;1.80;;;;;;;12.85;74.03;102102.53;5076046;28;20043;-80
2022/07/05 04:33:44;;;;;;;1.70;1.60;;;;;;;12.88;73.66;102097.31;5075388;28;20032;-80
2022/07/05 04:36:09;;;;;;;1.87;1.77;;;;;;;12.92;74.03;102101.63;5074869;28;20558;-80
2022/07/05 04:38:35;;;;;;;1.90;1.80;;;;;;;12.94;73.69;102086.00;5075752;28;20031;-80
2022/07/05 04:41:00;;;;;;;2.00;1.90;;;;;;;13.05;73.39;102102.44;5075619;28;20479;-80
2022/07/05 04:43:25;;;;;;;2.10;2.00;;;;;;;13.09;73.54;102103.28;5055205;28;20140;-80
2022/07/05 04:45:51;;;;;;;2.30;2.10;;;;;;;13.12;73.85;102098.91;5055146;28;20477;-80
2022/07/05 04:48:16;;;;;;;1.73;1.60;;;;;;;13.12;74.48;102098.91;5055698;28;20381;-79
2022/07/05 04:50:41;;;;;;;2.23;2.03;;;;;;;13.12;73.60;102096.31;5054911;28;20025;-79
2022/07/05 04:53:06;;;;;;;2.30;2.10;;;;;;;13.13;73.78;102094.56;5055507;28;20057;-79
2022/07/05 04:55:32;;;;;;;2.30;2.10;;;;;;;13.19;74.31;102099.75;5055210;28;20036;-78
2022/07/05 04:57:58;;;;;;;2.20;2.00;;;;;;;13.24;74.14;102095.34;5054579;28;20029;-78
2022/07/05 05:00:23;;;;;;;2.33;2.13;;;;;;;13.30;76.44;102102.28;5055215;28;20029;-79
2022/07/05 05:02:48;;;;;;;2.30;2.10;;;;;;;13.32;74.81;102090.09;5053937;28;20029;-79
2022/07/05 05:05:13;;;;;;;2.20;2.00;;;;;;;13.38;75.10;102092.69;5054109;28;20033;-79
2022/07/05 05:07:43;;;;;;;2.40;2.20;;;;;;;13.37;74.78;102083.13;5053921;28;20091;-79
2022/07/05 05:10:08;;;;;;;2.50;2.30;;;;;;;13.39;73.83;102090.91;5054703;28;20033;-79
2022/07/05 05:12:34;;;;;;;2.83;2.53;;;;;;;13.42;73.99;102090.94;5054495;28;20029;-80
2022/07/05 05:14:59;;;;;;;3.37;2.17;;;;;;;13.54;75.35;102105.63;5054485;28;20035;-79
2022/07/05 05:17:24;;;;;;;2.33;2.10;;;;;;;13.61;75.34;102090.78;5054933;28;20040;-80
2022/07/05 05:19:50;;;;;;;3.53;2.70;;;;;;;13.62;76.37;102093.41;5054002;28;20025;-79
2022/07/05 05:22:15;;;;;;;3.67;2.70;;;;;;;13.63;74.16;102095.13;5054735;28;20032;-79
2022/07/05 05:24:40;;;;;;;2.93;2.50;;;;;;;13.73;75.17;102111.56;5053597;28;20033;-79
2022/07/05 05:27:06;;;;;;;2.73;2.30;;;;;;;13.83;74.63;102104.53;5053817;28;20059;-80
2022/07/05 05:29:31;;;;;;;2.50;2.30;;;;;;;13.90;75.33;102109.66;5055361;28;20070;-79
2022/07/05 05:31:56;;;;;;;2.97;2.37;;;;;;;13.98;74.62;102107.00;5054343;28;20040;-79
2022/07/05 05:34:21;;;;;;;2.27;1.97;;;;;;;14.08;74.12;102120.84;5054720;28;20040;-79
2022/07/05 05:36:47;;;;;;;2.67;2.30;;;;;;;14.20;74.14;102125.06;5054548;28;20021;-79
2022/07/05 05:39:13;;;;;;;2.60;2.30;;;;;;;14.31;74.24;102124.97;5053839;28;20020;-79
2022/07/05 05:41:38;;;;;;;2.17;1.97;;;;;;;14.45;74.21;102130.03;5054926;28;20048;-78
2022/07/05 05:44:04;;;;;;;2.30;2.10;;;;;;;14.54;74.20;102129.91;5053623;28;20284;-79
2022/07/05 05:46:29;;;;;;;2.37;2.17;;;;;;;14.64;73.63;102126.31;5053865;28;20051;-79
2022/07/05 05:48:54;;;;;;;4.63;2.80;;;;;;;14.72;75.60;102131.50;5054658;28;20025;-79
2022/07/05 05:51:19;;;;;;;2.67;2.40;;;;;;;14.80;74.60;102139.25;5055036;28;20025;-79
2022/07/05 05:53:45;;;;;;;2.30;2.10;;;;;;;14.89;74.38;102133.03;5053898;28;20425;-79
2022/07/05 05:56:11;;;;;;;3.77;2.33;;;;;;;14.98;73.73;102138.16;5055235;28;20086;-79
2022/07/05 05:58:37;;;;;;;3.00;2.40;;;;;;;15.06;74.10;102138.06;5054340;28;20021;-79
2022/07/05 06:01:02;;;;;;;2.43;2.23;;;;;;;15.13;73.80;102140.56;5054394;28;20168;-79
2022/07/05 06:03:27;;;;;;;2.87;2.20;;;;;;;15.24;73.68;102140.41;5054571;28;20025;-79
2022/07/05 06:05:53;;;;;;;2.43;2.00;;;;;;;15.34;74.32;102135.91;5053619;28;20029;-78
2022/07/05 06:08:19;;;;;;;2.30;2.10;;;;;;;15.43;73.43;102145.34;5054036;28;20063;-78
2022/07/05 06:10:45;;;;;;;3.42;2.60;;;;;;;15.49;73.40;102145.28;5054253;28;20430;-80
2022/07/05 06:13:13;;;;;;;3.70;2.60;;;;;;;15.71;72.69;102153.66;5054148;28;20029;-80
2022/07/05 06:15:39;;;;;;;2.85;2.40;;;;;;;15.81;72.67;102145.66;5052157;28;20036;-79
2022/07/05 06:18:05;;;;;;;6.55;3.20;;;;;;;15.98;73.91;102138.41;5053858;28;20029;-80
2022/07/05 06:20:32;;;;;;;3.73;2.70;;;;;;;16.13;72.39;102139.03;5053795;28;20021;-79
2022/07/05 06:22:59;;;;;;;3.00;2.30;;;;;;;16.25;72.53;102146.69;5051484;28;20033;-78
2022/07/05 06:29:07;;;;;;;3.08;2.60;;;;;;;16.40;72.33;102158.63;5052698;28;20032;-79
2022/07/05 06:31:42;;;;;;;4.80;3.20;;;;;;;16.39;72.47;102150.78;5053724;28;20075;-79
2022/07/05 06:34:07;;;;;;;3.20;2.65;;;;;;;16.47;72.25;102162.00;5053574;28;20029;-78
2022/07/05 06:36:32;;;;;;;2.60;2.40;;;;;;;16.56;72.51;102155.69;5051807;28;20385;-78
2022/07/05 06:38:57;;;;;;;2.20;2.00;;;;;;;16.66;72.25;102165.13;5053009;28;20056;-78
2022/07/05 06:41:23;;;;;;;2.87;2.40;;;;;;;16.76;71.25;102164.06;5053387;28;20036;-79
2022/07/05 06:43:48;;;;;;;2.30;2.10;;;;;;;16.86;71.45;102164.72;5089375;28;20039;-78
2022/07/05 06:46:13;;;;;;;3.13;2.20;;;;;;;17.02;71.01;102161.81;5093549;28;20052;-79
2022/07/05 06:48:39;;;;;;;2.70;2.00;;;;;;;17.24;71.65;102170.94;5092349;28;20036;-79
2022/07/05 06:51:04;;;;;;;2.90;2.43;;;;;;;17.40;70.24;102173.19;5092406;28;20389;-79
2022/07/05 06:53:30;;;;;;;2.23;2.03;;;;;;;17.55;70.69;102164.13;5093554;28;20035;-79
2022/07/05 06:55:55;;;;;;;2.43;2.20;;;;;;;17.69;70.81;102164.63;5093159;28;20515;-79
2022/07/05 06:58:20;;;;;;;2.53;2.33;;;;;;;17.72;69.14;102161.94;5092458;28;20020;-79
2022/07/05 07:00:46;;;;;;;3.03;2.50;;;;;;;17.66;69.29;102161.22;5092896;28;20110;-82
2022/07/05 07:03:11;;;;;;;2.53;2.30;;;;;;;17.66;69.00;102166.47;5090513;28;20069;-83
2022/07/05 07:05:36;;;;;;;2.33;2.03;;;;;;;17.80;69.46;102156.50;5092992;28;20023;-83
2022/07/05 07:10:53;;;;;;;3.10;2.63;;;;;;;18.52;68.47;102160.81;5092281;28;20042;-83
2022/07/05 07:13:20;;;;;;;2.42;2.22;;;;;;;18.93;67.03;102165.78;5084962;28;20059;-82
2022/07/05 07:15:47;;;;;;;2.08;1.98;;;;;;;19.18;67.04;102163.31;5090617;28;20388;-82
2022/07/05 07:18:13;;;;;;;2.30;2.10;;;;;;;19.36;64.84;102163.66;5091294;28;20451;-80
2022/07/05 07:20:39;;;;;;;4.07;2.95;;;;;;;19.39;65.22;102161.78;5074561;28;20036;-83
2022/07/05 07:23:04;;;;;;;3.83;2.87;;;;;;;19.38;65.05;102173.22;5087152;28;20059;-81
2022/07/05 07:25:29;;;;;;;2.53;2.30;;;;;;;19.38;65.56;102164.44;5092265;28;20016;-81
2022/07/05 07:27:55;;;;;;;3.63;2.60;;;;;;;19.41;63.85;102177.53;5092808;28;20088;-81
2022/07/05 07:30:24;;;;;;;3.35;2.63;;;;;;;19.34;65.48;102173.38;5092846;28;20024;-80
2022/07/05 07:32:49;;;;;;;2.53;2.30;;;;;;;19.31;66.24;102166.41;5091854;28;20016;-81
2022/07/05 07:35:15;;;;;;;3.57;2.53;;;;;;;19.34;65.67;102176.00;5095345;28;20039;-80
2022/07/05 07:37:40;;;;;;;2.30;2.10;;;;;;;19.33;65.87;102175.13;5097139;28;20504;-81
2022/07/05 07:40:07;;;;;;;2.27;1.70;;;;;;;19.36;65.91;102182.09;5095522;28;20020;-80
2022/07/05 07:42:33;;;;;;;;;;;;;;;19.44;66.17;102185.34;5093687;28;20048;-80
2022/07/05 07:44:58;;;;;;;2.17;1.92;;;;;;;19.50;66.47;102182.50;5094553;28;19919;-80
2022/07/05 07:47:24;;;;;;;2.87;2.47;;;;;;;19.51;66.15;102186.84;5095264;28;20465;-80
2022/07/05 07:49:49;;;;;;;2.50;2.30;;;;;;;19.52;65.92;102177.19;5096658;28;20016;-80
2022/07/05 07:52:15;;;;;;;4.70;2.67;;;;;;;19.51;64.39;102186.00;5097500;28;20598;-79
2022/07/05 07:54:40;;;;;;;4.33;3.00;;;;;;;19.44;65.10;102186.19;5096291;28;20376;-80
2022/07/05 07:57:08;;;;;;;7.73;3.83;;;;;;;19.42;65.04;102184.53;5096956;28;20052;-80
2022/07/05 07:59:34;;;;;;;7.32;4.05;;;;;;;19.42;65.36;102184.53;5095707;28;20031;-81
2022/07/05 08:01:59;;;;;;;3.80;2.87;;;;;;;19.51;66.44;102180.75;5089482;28;20380;-80
2022/07/05 08:04:25;;;;;;;4.80;2.90;;;;;;;19.62;66.07;102183.03;5076207;28;20317;-80
2022/07/05 08:06:50;;;;;;;4.57;2.87;;;;;;;19.70;65.09;102186.28;5074461;28;20020;-80
2022/07/05 08:09:15;;;;;;;3.03;2.50;;;;;;;19.87;65.69;102189.25;5076182;28;20107;-81
2022/07/05 08:11:41;;;;;;;2.10;1.90;;;;;;;20.06;65.31;102193.88;5076062;28;20021;-80
2022/07/05 08:14:07;;;;;;;2.50;2.30;;;;;;;20.15;64.62;102179.53;5075469;28;20040;-80
2022/07/05 08:16:32;;;;;;;6.63;3.50;;;;;;;20.17;63.55;102196.16;5075713;28;20542;-81
2022/07/05 08:21:42;;;;;;;4.72;3.13;;;;;;;20.26;63.89;102190.56;5074191;28;20173;-81
2022/07/05 08:24:11;;;;;;;2.53;2.13;;;;;;;20.34;64.33;102193.78;5075913;28;20116;-81
2022/07/05 08:26:38;;;;;;;3.47;2.20;;;;;;;20.42;64.99;102187.41;5075868;28;20790;-82
2022/07/05 08:29:07;;;;;;;1.88;1.70;;;;;;;20.55;64.55;102193.09;5075349;28;20032;-81
2022/07/05 08:31:37;;;;;;;1.83;1.60;;;;;;;20.70;64.77;102202.22;5075983;28;20062;-81
2022/07/05 08:34:02;;;;;;;2.95;2.65;;;;;;;20.71;64.33;102199.56;5076025;28;20500;-81
2022/07/05 08:36:28;;;;;;;3.30;2.30;;;;;;;20.69;63.96;102193.47;5074845;28;20021;-81
2022/07/05 08:38:53;;;;;;;2.40;1.80;;;;;;;20.79;64.25;102194.00;5075684;28;20075;-81
2022/07/05 08:41:21;;;;;;;1.80;1.70;;;;;;;20.82;64.67;102199.16;5076418;28;20024;-81
2022/07/05 08:43:47;;;;;;;2.03;1.83;;;;;;;20.93;64.09;102190.88;5092698;28;20062;-81
2022/07/05 08:46:17;;;;;;;2.72;2.15;;;;;;;21.01;63.61;102190.56;5094972;28;20036;-81
2022/07/05 08:48:44;;;;;;;2.45;1.90;;;;;;;21.07;63.97;102198.25;5094755;28;20078;-81
2022/07/05 08:51:23;;;;;;;2.78;1.88;;;;;;;21.10;63.45;102195.50;5095645;28;20068;-81
2022/07/05 08:53:51;;;;;;;3.00;2.08;;;;;;;21.10;63.25;102190.22;5095148;28;20043;-82
2022/07/05 08:56:17;;;;;;;2.10;1.90;;;;;;;21.13;63.47;102190.97;5095135;28;20032;-80
2022/07/05 08:58:43;;;;;;;2.13;1.90;;;;;;;21.40;62.60;102196.06;5095239;28;20024;-82
2022/07/05 09:01:09;;;;;;;2.50;2.30;;;;;;;21.59;60.84;102190.94;5093128;28;20035;-74
2022/07/05 09:03:42;;;;;;;4.38;2.78;;;;;;;21.64;61.84;102193.41;5077662;28;20032;-75
2022/07/05 09:06:13;;;;;;;3.15;2.38;;;;;;;21.76;61.42;102194.69;5095548;28;20031;-75
2022/07/05 09:08:40;;;;;;;3.10;2.30;;;;;;;21.83;61.62;102197.94;5093437;28;20059;-75
2022/07/05 09:11:11;;;;;;;5.35;3.50;;;;;;;22.03;60.44;102192.69;5094223;28;20078;-75
2022/07/05 09:13:38;;;;;;;4.43;2.70;;;;;;;22.05;59.65;102197.88;5078599;28;20078;-76
2022/07/05 09:16:05;;;;;;;2.70;2.42;;;;;;;22.08;61.02;102199.53;5075294;28;20120;-76
2022/07/05 09:18:49;;;;;;;;;;;;;;;22.13;61.11;102202.84;5074785;28;20040;-75
2022/07/05 09:21:19;;;;;;;4.13;2.57;;;;;;;22.21;60.23;102193.69;5075167;28;20007;-75
2022/07/05 09:23:57;;;;;;;2.40;2.20;;;;;;;22.33;59.16;102194.91;5074659;28;20138;-75
2022/07/05 09:26:35;;;;;;;4.25;2.67;;;;;;;22.43;57.38;102192.78;5074990;28;20079;-76
2022/07/05 09:29:05;;;;;;;2.00;1.90;;;;;;;22.65;59.98;102194.47;5074543;28;20025;-82
2022/07/05 09:31:39;;;;;;;3.63;2.40;;;;;;;22.72;58.29;102197.69;5073703;28;20464;-82
2022/07/05 09:34:09;;;;;;;2.50;2.30;;;;;;;22.58;58.96;102196.50;5074713;28;20016;-82
2022/07/05 09:36:52;;;;;;;2.22;2.00;;;;;;;22.49;59.39;102189.84;5074512;28;20448;-81
2022/07/05 09:39:38;;;;;;;1.88;1.77;;;;;;;22.62;59.48;102199.88;5073681;28;20037;-81
2022/07/05 09:42:13;;;;;;;1.90;1.80;;;;;;;22.73;56.60;102194.97;5068587;28;20477;-81
2022/07/05 09:44:44;;;;;;;1.60;1.50;;;;;;;22.67;58.30;102192.59;5054407;28;20021;-82
2022/07/05 09:47:11;;;;;;;3.95;2.40;;;;;;;22.55;55.65;102179.94;5053449;28;20454;-82
2022/07/05 09:49:40;;;;;;;2.47;2.20;;;;;;;22.43;57.47;102181.31;5053572;28;20117;-81
2022/07/05 09:52:06;;;;;;;1.98;1.88;;;;;;;22.41;57.66;102188.44;5053709;28;20053;-82
2022/07/05 09:54:31;;;;;;;3.30;2.30;;;;;;;22.29;56.19;102184.53;5054249;28;20059;-80
2022/07/05 09:56:56;;;;;;;1.90;1.80;;;;;;;22.25;57.51;102189.09;5053923;28;20029;-76
2022/07/05 09:59:21;;;;;;;1.60;1.50;;;;;;;22.19;58.06;102186.72;5051826;28;20465;-82
2022/07/05 10:01:47;;;;;;;1.60;1.50;;;;;;;22.12;58.78;102183.50;5054176;28;20037;-84
2022/07/05 10:04:13;;;;;;;2.63;1.70;;;;;;;22.03;58.49;102187.38;5055075;28;20021;-83
2022/07/05 10:06:38;;;;;;;3.37;1.87;;;;;;;21.95;58.48;102188.63;5051914;28;20021;-83
2022/07/05 10:09:05;;;;;;;1.65;1.55;;;;;;;21.87;58.38;102181.91;5054753;28;20101;-83
2022/07/05 10:11:31;;;;;;;3.38;2.38;;;;;;;21.66;51.10;102185.44;5054162;28;20029;-83
2022/07/05 10:13:58;;;;;;;2.60;2.40;;;;;;;21.58;56.85;102189.19;5054158;28;20086;-82
2022/07/05 10:16:23;;;;;;;2.22;1.98;;;;;;;21.60;57.58;102194.47;5055953;28;20021;-82
2022/07/05 10:18:54;;;;;;;2.40;2.20;;;;;;;21.57;55.11;102190.09;5053553;28;20059;-81
2022/07/05 10:21:20;;;;;;;2.33;1.90;;;;;;;21.52;57.30;102194.75;5054062;28;20389;-81
2022/07/05 10:23:53;;;;;;;1.77;1.67;;;;;;;21.47;57.13;102204.59;5055227;28;20470;-81
2022/07/05 10:26:19;;;;;;;2.00;1.77;;;;;;;21.41;56.09;102204.88;5054962;28;20494;-81
2022/07/05 10:28:47;;;;;;;1.42;1.42;;;;;;;21.36;57.75;102194.50;5054091;28;20028;-82
2022/07/05 10:31:15;;;;;;;1.60;1.50;;;;;;;21.35;56.85;102198.03;5052966;28;20036;-82
2022/07/05 10:33:40;;;;;;;2.63;2.30;;;;;;;21.24;54.84;102197.59;5053769;28;20033;-81
2022/07/05 10:36:10;;;;;;;2.63;2.20;;;;;;;21.15;57.15;102190.91;5054241;28;20029;-83
2022/07/05 10:38:42;;;;;;;1.77;1.67;;;;;;;21.45;58.38;102195.88;5051105;28;20028;-82
2022/07/05 10:41:10;;;;;;;1.83;1.73;;;;;;;21.83;56.74;102190.03;5053873;28;20029;-81
2022/07/05 10:43:36;;;;;;;1.88;1.77;;;;;;;22.04;57.02;102188.25;5054061;28;20041;-81
2022/07/05 10:46:02;;;;;;;5.63;2.85;;;;;;;22.24;54.68;102186.50;5054144;28;20401;-81
2022/07/05 10:48:28;;;;;;;2.47;2.08;;;;;;;22.21;55.78;102180.47;5054592;28;20064;-80
2022/07/05 10:51:13;;;;;;;3.28;2.38;;;;;;;22.30;47.89;102184.47;5054373;28;20040;-81
2022/07/05 10:53:39;;;;;;;3.93;2.50;;;;;;;22.40;49.03;102182.28;5052668;28;20033;-80
2022/07/05 10:56:04;;;;;;;2.50;2.10;;;;;;;22.57;52.84;102184.22;5053137;28;20036;-81
2022/07/05 10:58:30;;;;;;;1.97;1.77;;;;;;;22.89;53.55;102186.31;5039230;28;20036;-83
2022/07/05 11:01:14;;;;;;;;;;;;;;;23.23;53.15;102182.13;5051205;28;20041;-82
2022/07/05 11:03:55;;;;;;;2.42;1.80;;;;;;;23.53;52.22;102186.88;5050885;28;19913;-81
2022/07/05 11:06:27;;;;;;;2.40;1.55;;;;;;;23.48;51.76;102186.22;5051517;28;20033;-79
2022/07/05 11:09:11;;;;;;;2.55;1.30;;;;;;;23.31;52.69;102189.69;5030312;28;20032;-84
2022/07/05 11:11:45;;;;;;;1.08;1.08;;;;;;;23.10;53.49;102189.75;5031218;28;20029;-81
2022/07/05 11:14:20;;;;;;;1.27;1.17;;;;;;;22.89;52.59;102192.47;5033531;28;20036;-80
2022/07/05 11:16:47;;;;;;;0.90;0.90;;;;;;;22.68;51.39;102186.38;5042973;28;20377;-79
2022/07/05 11:19:23;;;;;;;1.50;1.40;;;;;;;22.43;52.44;102189.25;5052333;28;20431;-80
2022/07/05 11:22:01;;;;;;;1.25;1.17;;;;;;;22.28;52.12;102198.69;5052124;28;20078;-80
2022/07/05 11:24:29;;;;;;;1.40;1.30;;;;;;;22.23;52.27;102196.25;5051914;28;20358;-80
2022/07/05 11:26:58;;;;;;;3.33;1.50;;;;;;;22.30;50.29;102195.03;5050751;28;20131;-80
2022/07/05 11:29:44;;;;;;;1.80;1.70;;;;;;;22.67;52.05;102192.59;5051560;28;20079;-80
2022/07/05 11:32:25;;;;;;;6.75;2.38;;;;;;;22.79;48.58;102193.81;5051366;28;20051;-79
2022/07/05 11:34:53;;;;;;;2.80;2.10;;;;;;;22.90;49.96;102193.34;5048597;28;20064;-79